Time;durP1;ratioP1;P1;durP2;ratioP2;P2;SDS_P1;SDS_P2;PMS_P1;PMS_P2;Temp;Humidity;BMP_temperature;BMP_pressure;BME280_temperature;BME280_humidity;BME280_pressure;Samples;Min_cycle;Max_cycle;Signal;HPM_P1;HPM_P2
2023/12/03 00:00:07;;;;;;;3.35;0.95;;;10.50;45.30;;;;;;7398035;19;19948;-71
2023/12/03 00:02:34;;;;;;;3.58;1.20;;;10.50;44.50;;;;;;7399656;19;19911;-71
2023/12/03 00:05:01;;;;;;;2.80;0.85;;;10.60;43.70;;;;;;7404889;19;20418;-72
2023/12/03 00:07:28;;;;;;;2.72;1.20;;;10.60;43.00;;;;;;7397266;19;20261;-72
2023/12/03 00:09:55;;;;;;;2.78;0.80;;;10.60;42.80;;;;;;7398599;19;19942;-73
2023/12/03 00:12:24;;;;;;;2.95;0.80;;;10.70;42.30;;;;;;7375099;19;19915;-72
2023/12/03 00:14:50;;;;;;;5.18;1.15;;;10.70;42.40;;;;;;7401488;19;19922;-72
2023/12/03 00:17:16;;;;;;;3.80;1.38;;;10.60;42.70;;;;;;7396332;19;19926;-71
2023/12/03 00:19:42;;;;;;;2.97;0.82;;;10.60;42.90;;;;;;7398606;19;20263;-73
2023/12/03 00:22:08;;;;;;;4.47;1.10;;;10.60;43.30;;;;;;7398928;19;20011;-72
2023/12/03 00:24:34;;;;;;;3.97;1.10;;;10.60;43.50;;;;;;7399021;19;20558;-71
2023/12/03 00:27:01;;;;;;;3.97;0.98;;;10.60;45.10;;;;;;7399205;19;19914;-72
2023/12/03 00:29:26;;;;;;;3.33;1.38;;;10.60;45.50;;;;;;7403654;19;20265;-71
2023/12/03 00:31:52;;;;;;;4.07;0.90;;;10.60;45.50;;;;;;7390894;19;19935;-71
2023/12/03 00:34:18;;;;;;;2.63;0.80;;;10.60;45.70;;;;;;7399221;19;20414;-71
2023/12/03 00:36:44;;;;;;;3.40;0.93;;;10.60;46.70;;;;;;7388544;19;19922;-72
2023/12/03 00:39:11;;;;;;;4.22;1.20;;;10.50;46.70;;;;;;7396833;19;19918;-72
2023/12/03 00:41:38;;;;;;;3.38;0.90;;;10.50;47.00;;;;;;7399134;19;19910;-73
2023/12/03 00:44:04;;;;;;;4.05;1.10;;;10.40;47.10;;;;;;7397522;19;19910;-71
2023/12/03 00:46:30;;;;;;;3.75;0.98;;;10.30;47.60;;;;;;7396527;19;19926;-72
2023/12/03 00:48:56;;;;;;;3.50;1.27;;;10.20;48.10;;;;;;7400233;19;19925;-72
2023/12/03 00:51:22;;;;;;;3.65;1.20;;;10.10;48.90;;;;;;7400808;19;20501;-72
2023/12/03 00:53:47;;;;;;;5.82;1.35;;;10.10;49.60;;;;;;7389934;19;19922;-72
2023/12/03 00:56:13;;;;;;;3.72;1.05;;;10.10;50.00;;;;;;7396299;19;19919;-71
2023/12/03 00:58:39;;;;;;;3.30;1.05;;;10.00;49.80;;;;;;7401758;19;19911;-72
2023/12/03 01:01:05;;;;;;;6.30;1.20;;;10.00;49.70;;;;;;7396820;19;19926;-72
2023/12/03 01:03:31;;;;;;;4.28;1.13;;;10.00;49.50;;;;;;7401078;19;19918;-72
2023/12/03 01:05:57;;;;;;;3.22;0.82;;;10.10;49.20;;;;;;7400845;19;19914;-72
2023/12/03 01:08:23;;;;;;;3.95;1.08;;;10.20;48.40;;;;;;7376915;19;20010;-72
2023/12/03 01:10:49;;;;;;;3.83;1.17;;;10.30;48.00;;;;;;7397582;19;19935;-72
2023/12/03 01:13:15;;;;;;;2.40;0.70;;;10.40;47.60;;;;;;7397439;19;19928;-72
2023/12/03 01:15:40;;;;;;;7.43;1.00;;;10.40;47.10;;;;;;7401481;19;19922;-72
2023/12/03 01:18:07;;;;;;;4.45;1.05;;;10.40;46.50;;;;;;7397289;19;19907;-73
2023/12/03 01:20:33;;;;;;;4.85;1.50;;;10.40;45.70;;;;;;7397690;19;19929;-71
2023/12/03 01:22:58;;;;;;;4.15;1.40;;;10.40;45.70;;;;;;7395863;19;19918;-72
2023/12/03 01:25:24;;;;;;;3.40;1.17;;;10.40;45.60;;;;;;7399007;19;19982;-71
2023/12/03 01:27:50;;;;;;;3.10;1.17;;;10.40;46.50;;;;;;7396584;19;19915;-72
2023/12/03 01:30:15;;;;;;;5.35;1.40;;;10.50;47.20;;;;;;7398137;19;19942;-72
2023/12/03 01:32:41;;;;;;;3.92;1.25;;;10.50;48.60;;;;;;7401170;19;20006;-72
2023/12/03 01:35:07;;;;;;;3.58;1.00;;;10.40;49.20;;;;;;7397876;19;19926;-71
2023/12/03 01:37:33;;;;;;;3.30;1.10;;;10.50;48.50;;;;;;7400759;19;19914;-70
2023/12/03 01:39:59;;;;;;;3.50;1.15;;;10.50;47.70;;;;;;7395930;19;20615;-71
2023/12/03 01:42:25;;;;;;;4.00;1.25;;;10.60;45.20;;;;;;7396636;19;19948;-71
2023/12/03 01:44:53;;;;;;;4.10;1.20;;;10.60;42.20;;;;;;7401504;19;19918;-71
2023/12/03 01:47:20;;;;;;;3.20;0.90;;;10.60;40.70;;;;;;7397537;19;19922;-72
2023/12/03 01:49:47;;;;;;;2.75;0.80;;;10.60;38.90;;;;;;7402364;19;19929;-72
2023/12/03 01:52:13;;;;;;;;;;;10.60;34.70;;;;;;7406023;19;19939;-72
2023/12/03 01:54:44;;;;;;;2.42;0.70;;;10.60;33.30;;;;;;7406537;19;19918;-72
2023/12/03 01:57:11;;;;;;;3.45;0.80;;;10.60;33.40;;;;;;7402343;19;19919;-71
2023/12/03 01:59:36;;;;;;;3.03;0.80;;;10.40;34.10;;;;;;7406983;19;19922;-71
2023/12/03 02:02:03;;;;;;;2.10;0.80;;;10.20;35.40;;;;;;7405607;19;19919;-71
2023/12/03 02:04:29;;;;;;;2.65;1.08;;;10.20;36.30;;;;;;7402486;19;19948;-71
2023/12/03 02:06:55;;;;;;;2.45;0.85;;;10.10;37.10;;;;;;7406000;19;19914;-71
2023/12/03 02:09:21;;;;;;;2.00;0.60;;;10.00;37.90;;;;;;7404411;19;19943;-72
2023/12/03 02:11:47;;;;;;;2.70;0.80;;;10.00;38.80;;;;;;7407043;19;19918;-71
2023/12/03 02:14:13;;;;;;;3.13;1.00;;;10.00;38.70;;;;;;7401613;19;20456;-72
2023/12/03 02:16:48;;;;;;;3.75;0.90;;;10.00;38.90;;;;;;7401948;19;19919;-71
2023/12/03 02:19:15;;;;;;;2.25;0.80;;;10.00;38.80;;;;;;7405696;19;19921;-71
2023/12/03 02:21:41;;;;;;;2.75;0.90;;;10.00;38.70;;;;;;7406129;19;20338;-71
2023/12/03 02:24:07;;;;;;;3.22;0.95;;;10.10;38.90;;;;;;7406076;19;20199;-71
2023/12/03 02:26:32;;;;;;;2.20;0.77;;;10.10;39.20;;;;;;7402174;19;19919;-71
2023/12/03 02:28:58;;;;;;;2.40;0.70;;;10.10;39.40;;;;;;7406604;19;19926;-71
2023/12/03 02:31:25;;;;;;;2.30;0.77;;;10.00;38.70;;;;;;7398817;19;19921;-72
2023/12/03 02:34:07;;;;;;;2.03;0.70;;;9.90;39.00;;;;;;7380675;19;19915;-71
2023/12/03 02:36:33;;;;;;;2.55;0.95;;;9.90;38.60;;;;;;7401479;19;20006;-71
2023/12/03 02:38:59;;;;;;;1.77;0.60;;;9.90;37.40;;;;;;7403209;19;19911;-70
2023/12/03 02:41:25;;;;;;;1.67;0.43;;;9.90;37.40;;;;;;7402053;19;20340;-71
2023/12/03 02:43:51;;;;;;;1.42;0.40;;;9.90;37.60;;;;;;7403024;19;19916;-71
2023/12/03 02:46:16;;;;;;;1.98;0.57;;;9.80;38.60;;;;;;7402071;19;19918;-71
2023/12/03 02:48:42;;;;;;;1.90;0.63;;;9.80;40.80;;;;;;7402431;19;20458;-71
2023/12/03 02:51:09;;;;;;;1.27;0.40;;;9.60;46.20;;;;;;7404544;19;19954;-71
2023/12/03 02:53:42;;;;;;;2.75;0.70;;;9.30;56.00;;;;;;7403546;19;19914;-71
2023/12/03 02:56:08;;;;;;;1.13;0.40;;;9.00;59.40;;;;;;7401744;19;20434;-71
2023/12/03 02:58:35;;;;;;;2.90;0.90;;;8.80;63.80;;;;;;7405310;19;19926;-71
2023/12/03 03:01:00;;;;;;;;;;;8.70;62.30;;;;;;7404168;19;19938;-71
2023/12/03 03:03:26;;;;;;;1.70;0.50;;;8.70;57.00;;;;;;7403753;19;20319;-71
2023/12/03 03:05:52;;;;;;;1.55;0.60;;;8.70;60.30;;;;;;7402772;19;19935;-71
2023/12/03 03:08:18;;;;;;;1.67;0.65;;;8.80;57.20;;;;;;7400537;19;19922;-71
2023/12/03 03:10:43;;;;;;;2.28;0.63;;;8.90;55.70;;;;;;7403914;19;19982;-72
2023/12/03 03:13:09;;;;;;;1.77;0.60;;;9.00;52.30;;;;;;7402618;19;19906;-72
2023/12/03 03:15:35;;;;;;;2.38;0.80;;;9.10;51.00;;;;;;7404122;19;19914;-72
2023/12/03 03:18:01;;;;;;;2.28;0.60;;;9.00;58.20;;;;;;7404499;19;19911;-71
2023/12/03 03:20:27;;;;;;;2.70;0.40;;;8.80;59.50;;;;;;7402327;19;19968;-72
2023/12/03 03:22:53;;;;;;;2.63;0.60;;;8.50;58.50;;;;;;7404872;19;20344;-72
2023/12/03 03:25:19;;;;;;;1.42;0.50;;;8.40;57.70;;;;;;7401197;19;19927;-71
2023/12/03 03:27:45;;;;;;;2.38;0.70;;;8.40;61.60;;;;;;7403375;19;19922;-72
2023/12/03 03:30:11;;;;;;;1.42;0.40;;;8.50;57.20;;;;;;7401632;19;19911;-70
2023/12/03 03:32:37;;;;;;;3.75;0.60;;;8.60;57.50;;;;;;7402378;19;20556;-71
2023/12/03 03:35:03;;;;;;;1.85;0.47;;;8.70;56.60;;;;;;7400334;19;19938;-72
2023/12/03 03:37:29;;;;;;;1.88;0.60;;;8.80;56.20;;;;;;7401177;19;20001;-72
2023/12/03 03:39:55;;;;;;;3.42;0.60;;;8.80;56.00;;;;;;7404156;19;19926;-72
2023/12/03 03:42:21;;;;;;;2.15;0.50;;;8.90;55.80;;;;;;7400951;19;19926;-72
2023/12/03 03:44:46;;;;;;;2.55;0.55;;;8.90;53.40;;;;;;7403084;19;19918;-71
2023/12/03 03:47:13;;;;;;;2.08;0.57;;;8.80;54.00;;;;;;7400582;19;19959;-71
2023/12/03 03:49:40;;;;;;;2.25;0.60;;;8.80;54.60;;;;;;7402170;19;19926;-72
2023/12/03 03:52:05;;;;;;;1.92;0.57;;;8.70;59.70;;;;;;7398159;19;20255;-72
2023/12/03 03:54:31;;;;;;;1.23;0.30;;;8.50;61.20;;;;;;7402537;19;19923;-73
2023/12/03 03:56:58;;;;;;;1.67;0.40;;;8.30;65.30;;;;;;7399281;19;19922;-71
2023/12/03 03:59:24;;;;;;;1.63;0.40;;;8.10;68.20;;;;;;7399336;19;19927;-72
2023/12/03 04:01:50;;;;;;;1.60;0.40;;;8.20;69.10;;;;;;7401342;19;19926;-72
2023/12/03 04:04:16;;;;;;;2.70;0.50;;;8.20;69.60;;;;;;7401788;19;19922;-72
2023/12/03 04:06:46;;;;;;;1.95;0.50;;;8.10;73.70;;;;;;7379885;19;19959;-71
2023/12/03 04:09:14;;;;;;;2.55;0.95;;;7.80;80.00;;;;;;7402040;19;20275;-72
2023/12/03 04:11:41;;;;;;;2.50;0.50;;;7.60;82.60;;;;;;7403119;19;19915;-71
2023/12/03 04:14:08;;;;;;;1.92;0.57;;;7.50;85.40;;;;;;7377023;19;20157;-72
2023/12/03 04:16:34;;;;;;;1.52;0.40;;;7.50;85.40;;;;;;7401236;19;19982;-72
2023/12/03 04:19:00;;;;;;;2.47;0.47;;;7.40;84.60;;;;;;7399837;19;19923;-72
2023/12/03 04:21:26;;;;;;;2.17;0.52;;;7.30;82.60;;;;;;7400499;19;19911;-72
2023/12/03 04:23:52;;;;;;;1.85;0.40;;;7.30;87.00;;;;;;7402617;19;19918;-71
2023/12/03 04:26:18;;;;;;;2.90;0.52;;;7.20;87.60;;;;;;7397041;19;19982;-71
2023/12/03 04:28:44;;;;;;;2.05;0.65;;;7.20;91.30;;;;;;7400141;19;19914;-70
2023/12/03 04:31:21;;;;;;;2.35;0.70;;;7.20;88.10;;;;;;7399280;19;20018;-71
2023/12/03 04:33:54;;;;;;;1.77;0.50;;;7.30;83.50;;;;;;7400598;19;20328;-72
2023/12/03 04:36:23;;;;;;;1.10;0.60;;;7.40;83.40;;;;;;7401724;19;20263;-71
2023/12/03 04:38:58;;;;;;;1.33;0.38;;;7.40;83.10;;;;;;7400585;19;19939;-71
2023/12/03 04:41:37;;;;;;;1.48;0.40;;;7.50;79.90;;;;;;7400237;19;19930;-70
2023/12/03 04:44:04;;;;;;;1.88;0.43;;;7.70;77.70;;;;;;7400425;19;19921;-71
2023/12/03 04:46:30;;;;;;;1.77;0.60;;;7.70;72.20;;;;;;7400637;19;19926;-70
2023/12/03 04:48:57;;;;;;;1.27;0.38;;;7.80;73.30;;;;;;7399400;19;20033;-73
2023/12/03 04:51:23;;;;;;;1.40;0.43;;;7.90;71.40;;;;;;7399887;19;20343;-71
2023/12/03 04:53:48;;;;;;;2.45;0.50;;;8.10;67.40;;;;;;7398485;19;19922;-71
2023/12/03 04:56:14;;;;;;;1.60;0.50;;;8.20;64.30;;;;;;7397914;19;19915;-71
2023/12/03 04:58:41;;;;;;;1.55;0.50;;;8.20;64.70;;;;;;7399802;19;19918;-71
2023/12/03 05:01:07;;;;;;;1.85;0.90;;;8.30;64.30;;;;;;7396754;19;19937;-71
2023/12/03 05:03:33;;;;;;;0.95;0.40;;;8.30;66.10;;;;;;7396580;19;19923;-71
2023/12/03 05:05:58;;;;;;;1.10;0.40;;;8.10;70.10;;;;;;7401406;19;19972;-71
2023/12/03 05:08:24;;;;;;;4.32;1.00;;;7.80;73.10;;;;;;7399408;19;20325;-70
2023/12/03 05:10:50;;;;;;;3.65;0.55;;;7.50;78.00;;;;;;7399105;19;19919;-71
2023/12/03 05:13:16;;;;;;;1.60;0.63;;;7.30;80.60;;;;;;7399206;19;19933;-72
2023/12/03 05:15:42;;;;;;;2.80;0.40;;;7.20;85.20;;;;;;7401897;19;19935;-71
2023/12/03 05:18:07;;;;;;;2.33;0.60;;;7.10;87.00;;;;;;7399001;19;19919;-71
2023/12/03 05:20:34;;;;;;;2.70;0.52;;;7.20;83.60;;;;;;7398598;19;20017;-73
2023/12/03 05:23:00;;;;;;;2.85;0.50;;;7.30;84.40;;;;;;7399499;19;19922;-70
2023/12/03 05:25:26;;;;;;;1.75;0.55;;;7.50;81.20;;;;;;7399267;19;19951;-71
2023/12/03 05:27:51;;;;;;;2.67;0.70;;;7.60;79.30;;;;;;7399877;19;19998;-73
2023/12/03 05:30:18;;;;;;;2.80;0.80;;;7.70;76.20;;;;;;7399703;19;19919;-71
2023/12/03 05:32:44;;;;;;;3.78;0.57;;;7.70;75.40;;;;;;7401670;19;19922;-71
2023/12/03 05:35:10;;;;;;;2.40;0.60;;;7.80;71.80;;;;;;7396666;19;19927;-71
2023/12/03 05:37:38;;;;;;;3.33;0.82;;;7.80;70.70;;;;;;7396253;19;19919;-72
2023/12/03 05:40:04;;;;;;;2.40;0.60;;;7.80;70.20;;;;;;7395494;19;19925;-71
2023/12/03 05:42:30;;;;;;;2.28;0.80;;;7.80;69.80;;;;;;7400557;19;20521;-73
2023/12/03 05:44:56;;;;;;;1.85;0.43;;;7.90;70.40;;;;;;7400733;19;19978;-70
2023/12/03 05:47:21;;;;;;;4.95;0.40;;;7.90;69.60;;;;;;7398088;19;19938;-71
2023/12/03 05:49:47;;;;;;;2.47;0.60;;;7.80;68.70;;;;;;7400314;19;19943;-73
2023/12/03 05:52:14;;;;;;;2.47;0.50;;;7.90;67.40;;;;;;7396368;19;19933;-72
2023/12/03 05:54:41;;;;;;;;;;;7.90;67.20;;;;;;7379798;19;20343;-71
2023/12/03 05:57:07;;;;;;;0.90;0.35;;;8.00;65.60;;;;;;7394189;19;19918;-72
2023/12/03 05:59:33;;;;;;;1.90;0.60;;;8.00;63.30;;;;;;7377292;19;19922;-71
2023/12/03 06:01:59;;;;;;;2.90;0.60;;;8.10;63.50;;;;;;7398746;19;19930;-71
2023/12/03 06:04:24;;;;;;;1.38;0.40;;;8.10;64.90;;;;;;7395619;19;19938;-71
2023/12/03 06:06:50;;;;;;;2.42;0.50;;;8.20;63.60;;;;;;7377802;19;19915;-72
2023/12/03 06:09:16;;;;;;;1.50;0.47;;;8.20;62.00;;;;;;7396182;19;19910;-71
2023/12/03 06:11:42;;;;;;;1.65;0.60;;;8.20;61.30;;;;;;7399205;19;19989;-71
2023/12/03 06:14:07;;;;;;;2.28;0.55;;;8.20;61.70;;;;;;7395270;19;19940;-71
2023/12/03 06:16:33;;;;;;;1.85;0.50;;;8.20;62.80;;;;;;7399682;19;19926;-71
2023/12/03 06:18:59;;;;;;;2.97;0.50;;;8.10;62.40;;;;;;7400037;19;19999;-71
2023/12/03 06:21:25;;;;;;;2.10;0.68;;;8.10;62.20;;;;;;7395710;19;20330;-71
2023/12/03 06:23:52;;;;;;;2.63;0.65;;;8.10;62.40;;;;;;7396681;19;20343;-71
2023/12/03 06:26:17;;;;;;;2.47;0.70;;;8.20;60.80;;;;;;7393969;19;19919;-71
2023/12/03 06:28:43;;;;;;;2.33;0.50;;;8.30;59.40;;;;;;7399997;19;19990;-72
2023/12/03 06:31:09;;;;;;;2.33;0.52;;;8.40;57.40;;;;;;7394478;19;19946;-71
2023/12/03 06:33:35;;;;;;;3.75;0.63;;;8.60;56.20;;;;;;7396875;19;19924;-72
2023/12/03 06:36:00;;;;;;;2.15;0.70;;;8.70;52.70;;;;;;7400911;19;19990;-72
2023/12/03 06:38:26;;;;;;;3.05;1.02;;;8.80;51.20;;;;;;7403244;19;19918;-71
2023/12/03 06:40:53;;;;;;;2.42;0.60;;;8.80;50.90;;;;;;7405399;19;19910;-71
2023/12/03 06:43:18;;;;;;;1.63;0.40;;;8.80;51.30;;;;;;7403862;19;19929;-71
2023/12/03 06:45:46;;;;;;;1.90;0.60;;;8.70;52.90;;;;;;7402984;19;19911;-73
2023/12/03 06:48:12;;;;;;;1.80;0.52;;;8.60;53.90;;;;;;7405174;19;19925;-72
2023/12/03 06:50:38;;;;;;;2.17;0.50;;;8.50;53.70;;;;;;7403586;19;19911;-71
2023/12/03 06:53:04;;;;;;;2.53;0.90;;;8.50;55.50;;;;;;7402217;19;20327;-71
2023/12/03 06:55:29;;;;;;;4.32;1.73;;;8.50;56.30;;;;;;7403394;19;19928;-72
2023/12/03 06:57:55;;;;;;;3.95;0.82;;;8.40;57.40;;;;;;7404768;19;19915;-72
2023/12/03 07:00:23;;;;;;;2.30;0.93;;;8.30;59.10;;;;;;7400154;19;19922;-71
2023/12/03 07:02:49;;;;;;;4.55;2.47;;;8.30;60.20;;;;;;7404517;19;19911;-72
2023/12/03 07:05:15;;;;;;;3.85;1.10;;;8.20;61.30;;;;;;7402130;19;19996;-72
2023/12/03 07:07:40;;;;;;;2.47;1.00;;;8.20;61.60;;;;;;7402752;19;20262;-71
2023/12/03 07:10:07;;;;;;;3.30;1.15;;;8.20;63.90;;;;;;7402085;19;19930;-72
2023/12/03 07:12:33;;;;;;;5.00;1.00;;;8.20;62.70;;;;;;7403975;19;19996;-71
2023/12/03 07:14:59;;;;;;;2.17;0.80;;;8.20;63.90;;;;;;7402321;19;20375;-71
2023/12/03 07:17:24;;;;;;;3.22;0.90;;;8.20;62.00;;;;;;7400595;19;19929;-71
2023/12/03 07:19:50;;;;;;;2.50;0.90;;;8.20;61.20;;;;;;7405320;19;20274;-71
2023/12/03 07:22:16;;;;;;;1.75;0.70;;;8.30;59.30;;;;;;7403659;19;20084;-72
2023/12/03 07:24:42;;;;;;;2.35;0.80;;;8.30;59.20;;;;;;7405494;19;19939;-71
2023/12/03 07:27:08;;;;;;;5.53;0.80;;;8.30;59.10;;;;;;7401736;19;19930;-71
2023/12/03 07:29:34;;;;;;;2.22;0.63;;;8.40;57.30;;;;;;7405275;19;19918;-71
2023/12/03 07:32:00;;;;;;;1.90;0.70;;;8.40;57.20;;;;;;7403961;19;19925;-70
2023/12/03 07:34:26;;;;;;;1.90;0.70;;;8.50;56.60;;;;;;7401150;19;19918;-71
2023/12/03 07:36:52;;;;;;;2.67;0.50;;;8.50;54.70;;;;;;7404062;19;19920;-72
2023/12/03 07:39:19;;;;;;;2.38;0.50;;;8.60;54.00;;;;;;7402002;19;19923;-72
2023/12/03 07:41:53;;;;;;;6.22;0.80;;;8.70;52.40;;;;;;7401577;19;20461;-71
2023/12/03 07:44:19;;;;;;;1.90;0.65;;;8.70;53.50;;;;;;7400787;19;19918;-72
2023/12/03 07:46:45;;;;;;;1.75;0.68;;;8.70;52.00;;;;;;7403206;19;19945;-71
2023/12/03 07:49:11;;;;;;;2.25;0.63;;;8.80;51.60;;;;;;7399487;19;19915;-71
2023/12/03 07:51:37;;;;;;;1.90;0.60;;;8.80;51.40;;;;;;7380615;19;19974;-72
2023/12/03 07:54:03;;;;;;;2.38;0.82;;;8.80;51.20;;;;;;7399088;19;19915;-72
2023/12/03 07:56:39;;;;;;;3.20;0.70;;;8.80;50.80;;;;;;7401320;19;19918;-73
2023/12/03 07:59:06;;;;;;;3.05;0.90;;;8.80;51.50;;;;;;7400578;19;20275;-71
2023/12/03 08:01:32;;;;;;;1.60;0.50;;;8.80;52.10;;;;;;7402240;19;19914;-72
2023/12/03 08:03:58;;;;;;;2.60;0.80;;;8.90;51.10;;;;;;7402234;19;19918;-71
2023/12/03 08:06:25;;;;;;;2.03;0.43;;;8.90;51.10;;;;;;7401327;19;19919;-73
2023/12/03 08:08:54;;;;;;;2.33;0.80;;;9.00;50.10;;;;;;7404685;19;19915;-72
2023/12/03 08:11:20;;;;;;;2.40;0.68;;;9.00;49.10;;;;;;7401913;19;20350;-72
2023/12/03 08:13:46;;;;;;;3.83;0.98;;;9.00;47.50;;;;;;7403053;19;19918;-72
2023/12/03 08:16:12;;;;;;;3.00;0.80;;;9.20;49.00;;;;;;7403254;19;19924;-72
2023/12/03 08:18:38;;;;;;;3.38;0.95;;;9.40;47.80;;;;;;7400511;19;19918;-72
2023/12/03 08:21:04;;;;;;;2.13;0.65;;;9.90;45.10;;;;;;7399258;19;19918;-71
2023/12/03 08:23:32;;;;;;;3.53;0.65;;;10.00;44.60;;;;;;7400991;19;19915;-71
2023/12/03 08:25:58;;;;;;;2.53;0.63;;;10.20;42.00;;;;;;7403687;19;20337;-72
2023/12/03 08:28:24;;;;;;;1.65;0.50;;;10.20;43.40;;;;;;7400412;19;19934;-72
2023/12/03 08:30:50;;;;;;;3.15;0.70;;;10.00;42.70;;;;;;7400445;19;19950;-73
2023/12/03 08:33:17;;;;;;;3.40;0.77;;;9.90;39.90;;;;;;7401475;19;19947;-73
2023/12/03 08:35:43;;;;;;;3.95;1.02;;;9.80;41.00;;;;;;7403425;19;19911;-72
2023/12/03 08:38:09;;;;;;;2.20;0.98;;;9.90;44.70;;;;;;7399167;19;19921;-72
2023/12/03 08:40:35;;;;;;;3.10;0.93;;;10.00;45.10;;;;;;7400822;19;20343;-72
2023/12/03 08:43:00;;;;;;;4.22;0.80;;;10.00;45.50;;;;;;7400485;19;19915;-72
2023/12/03 08:45:26;;;;;;;3.05;0.50;;;10.00;41.30;;;;;;7399691;19;20469;-72
2023/12/03 08:47:52;;;;;;;2.33;0.85;;;10.00;41.60;;;;;;7401522;19;20014;-71
2023/12/03 08:50:18;;;;;;;17.40;7.82;;;10.20;40.90;;;;;;7398997;19;19919;-72
2023/12/03 08:52:44;;;;;;;5.18;1.13;;;10.40;38.70;;;;;;7400834;19;19918;-72
2023/12/03 08:55:10;;;;;;;3.25;0.50;;;10.40;39.00;;;;;;7398635;19;20449;-71
2023/12/03 08:57:36;;;;;;;1.98;0.75;;;10.40;39.10;;;;;;7395889;19;19915;-71
2023/12/03 09:00:07;;;;;;;3.25;0.75;;;10.30;38.90;;;;;;7399166;19;19914;-71
2023/12/03 09:02:33;;;;;;;2.10;0.63;;;10.30;39.70;;;;;;7399636;19;19929;-71
2023/12/03 09:04:59;;;;;;;2.35;1.08;;;10.40;39.40;;;;;;7401441;19;19922;-71
2023/12/03 09:07:25;;;;;;;2.58;1.00;;;10.40;38.70;;;;;;7398285;19;20292;-71
2023/12/03 09:09:51;;;;;;;1.88;0.63;;;10.30;39.40;;;;;;7400461;19;19921;-72
2023/12/03 09:12:17;;;;;;;2.67;0.95;;;10.70;41.40;;;;;;7398287;19;19958;-72
2023/12/03 09:14:43;;;;;;;3.63;1.25;;;11.10;40.10;;;;;;7400089;19;20496;-72
2023/12/03 09:17:09;;;;;;;2.45;1.02;;;11.70;38.40;;;;;;7397521;19;19930;-72
2023/12/03 09:19:35;;;;;;;4.18;1.23;;;12.20;35.70;;;;;;7400789;19;19922;-72
2023/12/03 09:22:00;;;;;;;3.65;1.05;;;12.00;35.50;;;;;;7399148;19;19911;-72
2023/12/03 09:24:26;;;;;;;4.10;1.10;;;12.10;37.10;;;;;;7397374;19;19914;-72
2023/12/03 09:26:52;;;;;;;2.88;0.90;;;12.40;34.80;;;;;;7393214;19;19918;-71
2023/12/03 09:29:18;;;;;;;3.92;1.15;;;12.70;36.00;;;;;;7396169;19;19919;-72
2023/12/03 09:31:43;;;;;;;3.75;1.25;;;13.50;33.30;;;;;;7397757;19;19914;-72
2023/12/03 09:34:09;;;;;;;3.45;1.00;;;13.60;33.10;;;;;;7396526;19;19931;-72
2023/12/03 09:36:35;;;;;;;4.18;1.27;;;14.00;31.20;;;;;;7385544;19;19938;-73
2023/12/03 09:39:01;;;;;;;3.03;1.10;;;14.40;29.80;;;;;;7387779;19;19935;-72
2023/12/03 09:41:29;;;;;;;3.50;1.30;;;13.90;28.00;;;;;;7390253;19;19918;-73
2023/12/03 09:44:00;;;;;;;2.60;0.88;;;12.90;32.20;;;;;;7398021;19;19922;-72
2023/12/03 09:46:31;;;;;;;3.53;1.13;;;12.70;33.30;;;;;;7398762;19;19922;-72
2023/12/03 09:49:00;;;;;;;4.72;1.30;;;12.40;34.30;;;;;;7400367;19;20374;-75
2023/12/03 09:51:29;;;;;;;4.50;1.23;;;12.60;36.10;;;;;;7396066;19;19978;-72
2023/12/03 09:53:57;;;;;;;3.08;1.23;;;13.10;35.00;;;;;;7398452;19;19923;-72
2023/12/03 09:56:25;;;;;;;3.65;1.85;;;13.70;32.70;;;;;;7395353;19;20339;-72
2023/12/03 09:58:51;;;;;;;3.83;1.05;;;14.10;31.50;;;;;;7395565;19;19958;-72
2023/12/03 10:01:17;;;;;;;;;;;14.10;31.10;;;;;;7399131;19;19914;-74
2023/12/03 10:03:43;;;;;;;4.85;2.05;;;14.30;30.30;;;;;;7397440;19;19919;-72
2023/12/03 10:06:12;;;;;;;6.13;1.95;;;14.60;30.10;;;;;;7380206;19;19934;-73
2023/12/03 10:08:42;;;;;;;4.25;1.20;;;14.90;29.10;;;;;;7388824;19;19911;-72
2023/12/03 10:11:13;;;;;;;3.75;1.30;;;14.90;28.80;;;;;;7397349;19;19922;-73
2023/12/03 10:13:39;;;;;;;3.83;1.05;;;15.20;29.20;;;;;;7400774;19;19911;-73
2023/12/03 10:16:10;;;;;;;3.20;1.15;;;15.30;30.00;;;;;;7392358;19;19941;-73
2023/12/03 10:18:36;;;;;;;5.10;1.08;;;15.50;31.20;;;;;;7396484;19;19925;-73
2023/12/03 10:21:06;;;;;;;2.97;1.13;;;15.70;31.30;;;;;;7394880;19;19914;-72
2023/12/03 10:23:32;;;;;;;3.45;1.13;;;15.80;29.70;;;;;;7403039;19;19935;-72
2023/12/03 10:26:12;;;;;;;5.13;1.35;;;15.60;30.50;;;;;;7402332;19;19946;-72
2023/12/03 10:28:42;;;;;;;4.60;1.55;;;15.40;30.80;;;;;;7400282;19;19939;-72
2023/12/03 10:31:15;;;;;;;4.75;1.40;;;15.60;30.70;;;;;;7392987;19;19959;-72
2023/12/03 10:33:45;;;;;;;3.20;1.35;;;15.60;29.30;;;;;;7403336;19;19918;-73
2023/12/03 10:36:12;;;;;;;6.72;1.80;;;15.10;30.60;;;;;;7401752;19;19931;-71
2023/12/03 10:38:40;;;;;;;5.50;1.33;;;15.20;31.70;;;;;;7405729;19;19938;-72
2023/12/03 10:41:09;;;;;;;4.90;1.30;;;15.20;31.40;;;;;;7401434;19;19919;-73
2023/12/03 10:43:41;;;;;;;3.65;1.23;;;15.20;30.80;;;;;;7404268;19;19959;-72
2023/12/03 10:46:11;;;;;;;4.90;1.45;;;15.30;31.70;;;;;;7400673;19;19930;-72
2023/12/03 10:48:39;;;;;;;4.47;1.50;;;15.60;30.80;;;;;;7406054;19;19922;-71
2023/12/03 10:51:07;;;;;;;5.43;1.38;;;16.40;29.40;;;;;;7401579;19;19918;-72
2023/12/03 10:53:34;;;;;;;4.53;1.25;;;16.60;28.40;;;;;;7404219;19;19923;-71
2023/12/03 10:56:05;;;;;;;5.25;1.70;;;16.50;27.30;;;;;;7401842;19;19915;-73
2023/12/03 10:58:34;;;;;;;5.10;1.23;;;16.40;27.90;;;;;;7399878;19;19918;-73
2023/12/03 11:01:12;;;;;;;5.20;1.33;;;17.40;27.30;;;;;;7400522;19;19922;-72
2023/12/03 11:03:38;;;;;;;;;;;16.90;26.40;;;;;;7405338;19;19934;-72
2023/12/03 11:06:08;;;;;;;5.13;1.50;;;17.40;25.30;;;;;;7400878;19;19915;-73
2023/12/03 11:08:35;;;;;;;5.82;1.50;;;17.20;26.50;;;;;;7402004;19;20629;-72
2023/12/03 11:11:02;;;;;;;3.17;1.08;;;17.80;24.90;;;;;;7405047;19;19918;-73
2023/12/03 11:13:27;;;;;;;5.15;1.42;;;18.10;23.40;;;;;;7399805;19;19925;-72
2023/12/03 11:15:54;;;;;;;3.53;1.27;;;17.60;22.80;;;;;;7402008;19;19926;-72
2023/12/03 11:18:22;;;;;;;5.78;1.42;;;17.70;24.20;;;;;;7401504;19;19942;-73
2023/12/03 11:20:50;;;;;;;3.75;1.38;;;17.80;23.90;;;;;;7400213;19;19919;-72
2023/12/03 11:23:33;;;;;;;4.80;1.60;;;17.60;22.90;;;;;;7403407;19;20021;-72
2023/12/03 11:26:14;;;;;;;4.30;1.50;;;17.90;22.60;;;;;;7404172;19;19925;-71
2023/12/03 11:29:01;;;;;;;3.90;1.40;;;17.60;23.20;;;;;;7401027;19;19914;-73
2023/12/03 11:31:27;;;;;;;5.22;1.88;;;16.40;24.70;;;;;;7399136;19;19950;-71
2023/12/03 11:33:58;;;;;;;5.20;1.63;;;16.90;25.40;;;;;;7401665;19;19926;-72
2023/12/03 11:36:49;;;;;;;4.53;1.70;;;16.20;24.70;;;;;;7398664;19;20357;-72
2023/12/03 11:39:15;;;;;;;3.85;1.25;;;17.90;24.50;;;;;;7398738;19;19926;-72
2023/12/03 11:41:45;;;;;;;4.88;1.63;;;18.90;20.80;;;;;;7402473;19;20015;-72
2023/12/03 11:44:18;;;;;;;5.63;1.90;;;18.80;21.60;;;;;;7400390;19;19915;-72
2023/12/03 11:47:03;;;;;;;4.68;1.60;;;17.90;21.90;;;;;;7401268;19;19914;-73
2023/12/03 11:49:32;;;;;;;5.07;1.75;;;18.50;21.10;;;;;;7400862;19;19946;-73
2023/12/03 11:52:04;;;;;;;4.60;1.73;;;18.20;21.80;;;;;;7382538;19;20240;-73
2023/12/03 11:54:53;;;;;;;5.57;1.50;;;18.10;22.30;;;;;;7381417;19;19914;-72
2023/12/03 11:57:19;;;;;;;4.00;1.75;;;18.80;22.10;;;;;;7405469;19;19911;-74
2023/12/03 11:59:45;;;;;;;6.88;1.80;;;18.20;21.80;;;;;;7401682;19;20335;-72
2023/12/03 12:02:12;;;;;;;;;;;16.60;23.30;;;;;;7400712;19;19914;-73
2023/12/03 12:04:37;;;;;;;5.43;1.60;;;16.80;24.60;;;;;;7401152;19;20320;-75
2023/12/03 12:07:17;;;;;;;4.65;1.52;;;18.50;22.20;;;;;;7401781;19;19915;-72
2023/12/03 12:09:45;;;;;;;4.63;1.60;;;18.40;19.50;;;;;;7402992;19;19918;-72
2023/12/03 12:12:11;;;;;;;5.97;1.60;;;18.80;20.40;;;;;;7399218;19;19986;-72
2023/12/03 12:14:37;;;;;;;5.00;1.85;;;19.10;20.50;;;;;;7399186;19;19994;-72
2023/12/03 12:17:09;;;;;;;4.13;2.03;;;19.80;18.40;;;;;;7399730;19;20311;-72
2023/12/03 12:19:34;;;;;;;;;;;19.80;18.70;;;;;;7403316;19;20259;-72
2023/12/03 12:22:00;;;;;;;5.22;1.88;;;19.80;18.40;;;;;;7401539;19;19923;-73
2023/12/03 12:24:26;;;;;;;6.47;2.00;;;18.30;20.50;;;;;;7400298;19;20322;-72
2023/12/03 12:26:54;;;;;;;4.70;2.00;;;19.00;20.30;;;;;;7399251;19;19926;-72
2023/12/03 12:29:22;;;;;;;5.15;1.70;;;19.20;19.50;;;;;;7399850;19;19926;-71
2023/12/03 12:31:48;;;;;;;5.68;1.95;;;17.80;21.90;;;;;;7402002;19;19917;-71
2023/12/03 12:34:14;;;;;;;5.70;2.20;;;17.90;20.20;;;;;;7396604;19;19923;-73
2023/12/03 12:36:43;;;;;;;5.60;2.38;;;18.60;21.00;;;;;;7393749;19;19915;-72
2023/12/03 12:39:27;;;;;;;6.47;2.30;;;18.20;19.40;;;;;;7397140;19;19915;-72
2023/12/03 12:41:55;;;;;;;6.53;2.08;;;18.40;20.00;;;;;;7394537;19;19929;-72
2023/12/03 12:44:21;;;;;;;5.30;2.35;;;18.80;20.60;;;;;;7384713;19;19917;-72
2023/12/03 12:46:55;;;;;;;5.80;2.45;;;19.30;19.10;;;;;;7392165;19;19918;-72
2023/12/03 12:49:21;;;;;;;6.35;2.20;;;18.60;18.60;;;;;;7388664;19;19938;-73
2023/12/03 12:51:47;;;;;;;4.90;2.15;;;19.00;18.40;;;;;;7390724;19;19926;-73